Cincinnati, OH (45207)

8:26 PM EST on January 23, 2017 (GMT -0500)
Hyde Park | | Change Station

Elev 751 ft 39.14 °N, 84.45 °W | Updated 3 seconds ago

Rain
Rain
46.8 °F
Feels Like 47 °F
N
0.9
Wind Variable Wind from NW
Gusts 2.5 mph

Today
High -- | Low -- °F
--% Chance of Precip.
Yesterday
High -- | Low -- °F
Precip. -- in
Pressure 29.66 in
Visibility 4.0 miles
Clouds Mostly Cloudy 1200 ft
Mostly Cloudy 1800 ft
Overcast 2200 ft
Windchill 47 °F
Dew Point 45 °F
Humidity 92%
Rainfall 0.07 in
Snow Depth Not available.
7:51 AM 5:48 PM
Waning Crescent, 15% visible
SPECI KLUK 240101Z 32004KT 4SM -RA BR BKN012 BKN018 OVC022 08/08 A2966 RMK AO2 P0001 T00830078
Pressure 29.66 in
Visibility 4.0 miles
Clouds Mostly Cloudy 1200 ft
Mostly Cloudy 1800 ft
Overcast 2200 ft
Windchill 47 °F
Dew Point 45 °F
Humidity 92%
Rainfall 0.07 in
Snow Depth Not available.
7:51 AM 5:48 PM
Waning Crescent, 15% visible
SPECI KLUK 240101Z 32004KT 4SM -RA BR BKN012 BKN018 OVC022 08/08 A2966 RMK AO2 P0001 T00830078

Get Your Daily Forecast Email!

Thanks for signing up!

Be on the lookout for a verification email in your inbox.

You'll start receiving the daily forecast at 8 AM.

×

10-Day Weather Forecast

Almanac

Astronomy

Jan. 23, 2017 Rise Set
Actual Time
Civil Twilight
Nautical Twilight
Astronomical Twilight
Moon
Length of Visible Light
Length of Day
Tomorrow will be .
, % of the Moon is Illuminated

Today's Extremes

State Highs State Lows

Community

WunderPhotos

Upload Photos

1,962,540 photos uploaded!

WunderBlog® & News

Nearby

Air Quality

  Air Quality AQ Index Pollutant
Not available.

Snow Depth

Station Depth Elevation

Earthquake Activity

City Distance Mag. Time & Date
Minimum magnitude displayed is 2.5.

Coastal Water Temperatures

Place Temperature

Stations

Nearby Weather Stations

Station Location Temp. Windchill Dew Point Humidity Wind Precip. Elev Updated Type
                   

Watches & Warnings

There are currently no watches in effect.